Latest Weather Observations for Yulara

IDD60801

Issued at 5:01 pm CST Saturday 5 September 2015 (issued every 30 minutes, with the page automatically refreshed every 10 minutes)

About weather observations | Map of weather stations | Latest weather observations for NT | Other Formats
Station Details ID: 015635 Name: YULARA AIRPORT Lat: -25.19 Lon: 130.97 Height: 492.0 m
Data from the previous 72 hours. | See also: Recent months at Yulara
Date/Time
CST
Temp
°C
App
Temp
°C
Dew
Point
Rel
Hum
%
Delta-T
°C
Wind Press
QNH
hPa
Press
MSL
hPa
Rain
since 9 am
mm
Dir
 
Spd
km/h
Gust
km/h
Spd
kts
Gust
kts
05/05:00pm 27.9 25.1 -3.0 13 14.1 SSW 2 11 1 6 1017.1 1015.3 0.0
05/04:30pm 27.9 24.8 -3.0 13 14.1 S 4 13 2 7 1017.2 1015.4 0.0
05/04:00pm 28.2 25.1 -2.8 13 14.2 W 4 11 2 6 1017.3 1015.5 0.0
05/03:30pm 28.6 25.5 -2.5 13 14.4 WSW 4 13 2 7 1017.6 1015.8 0.0
05/03:00pm 27.3 23.8 -2.5 14 13.6 ESE 6 11 3 6 1018.0 1016.2 0.0
05/02:30pm 28.0 24.2 -1.0 15 13.7 S 9 20 5 11 1018.3 1016.5 0.0
05/02:00pm 26.5 22.2 -1.3 16 13.0 NW 11 20 6 11 1019.0 1017.2 0.0
05/01:30pm 27.0 23.7 -0.9 16 13.1 WSW 6 15 3 8 1019.6 1017.8 0.0
05/01:00pm 25.0 20.8 -0.9 18 12.0 ESE 11 22 6 12 1020.1 1018.3 0.0
05/12:30pm 25.7 21.9 -0.4 18 12.3 SSE 9 15 5 8 1020.7 1019.0 0.0
05/12:00pm 24.2 20.6 0.5 21 11.2 E 9 20 5 11 1021.5 1019.7 0.0
05/11:30am 22.8 18.1 1.2 24 10.2 ENE 15 22 8 12 1022.1 1020.4 0.0
05/11:00am 22.3 17.7 1.3 25 9.9 NE 15 20 8 11 1022.6 1020.9 0.0
05/10:30am 20.9 16.8 2.2 29 8.9 ENE 13 20 7 11 1023.1 1021.4 0.0
05/10:00am 19.4 14.9 1.9 31 8.2 ENE 15 22 8 12 1023.4 1021.6 0.0
05/09:30am 17.6 12.6 1.6 34 7.3 NE 17 20 9 11 1023.4 1021.6 0.0
05/09:00am 16.1 11.9 1.8 38 6.5 ENE 13 19 7 10 1023.6 1021.8 0.0
05/08:30am 13.6 9.7 1.3 43 5.4 ESE 11 17 6 9 1023.4 1021.6 0.0
05/08:00am 11.0 7.0 0.7 49 4.4 SE 11 15 6 8 1023.1 1021.4 0.0
05/07:30am 8.2 4.9 0.2 57 3.3 SE 7 9 4 5 1022.9 1021.2 0.0
05/07:00am 7.2 3.4 -0.5 58 3.1 SE 9 11 5 6 1022.6 1020.9 0.0
05/06:30am 6.3 2.7 -2.3 54 3.2 SE 7 9 4 5 1022.4 1020.7 0.0
05/06:00am 6.6 2.3 -1.8 55 3.2 SSE 11 13 6 7 1022.3 1020.6 0.0
05/05:30am 7.0 3.0 -1.9 53 3.4 S 9 11 5 6 1022.3 1020.6 0.0
05/05:00am 7.0 3.3 -2.7 50 3.6 S 7 11 4 6 1022.0 1020.3 0.0
05/04:30am 7.6 3.9 -2.7 48 3.9 S 7 11 4 6 1021.9 1020.1 0.0
05/04:00am 7.9 4.2 -2.7 47 4.0 SSE 7 11 4 6 1021.7 1019.9 0.0
05/03:30am 9.0 5.1 -1.7 47 4.2 SSE 9 11 5 6 1021.9 1020.1 0.0
05/03:00am 9.9 6.5 -0.6 48 4.3 SSE 7 9 4 5 1022.1 1020.4 0.0
05/02:30am 10.3 7.8 -1.1 45 4.6 SSE 2 7 1 4 1022.3 1020.6 0.0
05/02:00am 11.0 8.8 -1.4 42 5.0 CALM 0 0 0 0 1022.2 1020.5 0.0
05/01:30am 10.0 7.2 -3.3 39 5.1 SSE 2 6 1 3 1022.4 1020.7 0.0
05/01:00am 10.1 6.6 -2.9 40 5.0 E 6 7 3 4 1022.5 1020.8 0.0
05/12:30am 12.0 8.4 -1.9 38 5.6 ESE 7 9 4 5 1022.6 1020.9 0.0
05/12:00am 11.9 8.4 -2.7 36 5.8 SE 6 9 3 5 1022.8 1021.1 0.0
 
Date/Time
CST
Temp
°C
App
Temp
°C
Dew
Point
Rel
Hum
%
Delta-T
°C
Wind Press
QNH
hPa
Press
MSL
hPa
Rain
since 9 am
mm
Dir
 
Spd
km/h
Gust
km/h
Spd
kts
Gust
kts
04/11:30pm 12.8 9.1 -2.6 34 6.2 ESE 7 9 4 5 1023.0 1021.3 0.0
04/11:00pm 14.3 10.3 -2.6 31 6.9 ESE 9 11 5 6 1023.0 1021.3 0.0
04/10:30pm 15.0 10.2 -2.4 30 7.1 SE 13 15 7 8 1022.9 1021.2 0.0
04/10:00pm 15.1 10.7 -2.3 30 7.2 SE 11 11 6 6 1023.1 1021.4 0.0
04/09:30pm 16.2 12.2 -2.3 28 7.7 ESE 9 11 5 6 1023.0 1021.3 0.0
04/09:00pm 16.7 12.2 -2.9 26 8.1 SE 11 13 6 7 1022.9 1021.2 0.0
04/08:30pm 16.8 12.7 -3.3 25 8.2 SE 9 11 5 6 1022.5 1020.8 0.0
04/08:00pm 16.7 13.1 -3.9 24 8.4 SE 6 7 3 4 1022.3 1020.6 0.0
04/07:30pm 19.3 15.8 -2.9 22 9.4 ESE 6 9 3 5 1021.9 1020.1 0.0
04/07:00pm 21.2 17.5 -2.6 20 10.4 ESE 7 9 4 5 1021.6 1019.8 0.0
04/06:30pm 22.6 19.1 -2.9 18 11.1 E 6 7 3 4 1021.4 1019.6 0.0
04/06:00pm 23.2 19.7 -3.2 17 11.5 ENE 6 9 3 5 1021.2 1019.4 0.0
04/05:30pm 23.5 20.3 -3.7 16 11.8 NNE 4 13 2 7 1020.9 1019.2 0.0
04/05:00pm 23.3 18.8 -3.1 17 11.6 ESE 11 19 6 10 1020.8 1019.1 0.0
04/04:30pm 23.8 20.0 -3.5 16 11.9 ESE 7 15 4 8 1020.7 1019.0 0.0
04/04:00pm 23.4 19.2 -3.8 16 11.8 ESE 9 17 5 9 1020.8 1019.1 0.0
04/03:30pm 23.6 18.8 -2.8 17 11.7 SE 13 24 7 13 1021.1 1019.3 0.0
04/03:00pm 23.1 19.5 -1.8 19 11.2 S 7 15 4 8 1021.3 1019.5 0.0
04/02:30pm 23.7 18.8 -3.6 16 11.9 E 13 22 7 12 1021.8 1020.0 0.0
04/02:00pm 22.6 18.0 -0.8 21 10.7 NE 13 22 7 12 1022.1 1020.4 0.0
04/01:30pm 22.0 17.9 -0.1 23 10.1 ESE 11 24 6 13 1022.7 1021.0 0.0
04/01:00pm 21.7 18.6 0.3 24 9.9 ESE 6 19 3 10 1023.3 1021.5 0.0
04/12:30pm 21.1 17.4 2.4 29 8.9 ESE 11 20 6 11 1023.9 1022.2 0.0
04/12:00pm 20.7 16.0 3.4 32 8.4 ENE 17 28 9 15 1024.4 1022.7 0.0
04/11:30am 19.1 14.1 3.7 36 7.4 ENE 19 32 10 17 1024.8 1023.1 0.0
04/11:00am 18.8 13.4 4.6 39 7.0 ENE 22 30 12 16 1025.3 1023.6 0.0
04/10:30am 18.3 12.2 4.8 41 6.6 ENE 26 33 14 18 1025.8 1024.1 0.0
04/10:00am 17.2 11.2 5.2 45 5.9 ENE 26 35 14 19 1025.9 1024.2 0.0
04/09:30am 15.8 9.4 5.1 49 5.2 ENE 28 32 15 17 1026.0 1024.3 0.0
04/09:00am 14.8 9.1 4.8 51 4.8 E 24 32 13 17 1025.9 1024.2 0.0
04/08:30am 12.6 8.6 5.1 60 3.5 E 15 20 8 11 1025.9 1024.2 0.0
04/08:00am 10.0 6.3 4.4 68 2.6 SE 13 17 7 9 1025.6 1023.9 0.0
04/07:30am 8.1 4.2 3.6 73 2.0 SE 13 17 7 9 1025.5 1023.7 0.0
04/07:00am 7.5 3.6 3.2 74 1.9 SE 13 15 7 8 1025.2 1023.5 0.0
04/06:30am 7.8 4.2 3.1 72 2.0 SE 11 15 6 8 1024.9 1023.2 0.0
04/06:00am 8.5 4.9 3.1 69 2.4 ESE 11 13 6 7 1024.7 1023.0 0.0
04/05:30am 9.1 5.1 3.1 66 2.6 SE 13 17 7 9 1024.3 1022.6 0.0
04/05:00am 9.5 5.6 3.3 65 2.8 SE 13 17 7 9 1024.3 1022.6 0.0
04/04:30am 9.7 5.4 3.0 63 3.0 SE 15 19 8 10 1024.0 1022.3 0.0
04/04:00am 10.0 5.7 3.1 62 3.1 SE 15 19 8 10 1023.8 1022.1 0.0
04/03:30am 9.8 5.7 2.4 60 3.2 SE 13 17 7 9 1023.9 1022.2 0.0
04/03:00am 9.7 6.0 2.1 59 3.3 SSE 11 13 6 7 1024.0 1022.3 0.0
04/02:30am 9.4 6.0 1.6 58 3.3 SSE 9 13 5 7 1024.1 1022.4 0.0
04/02:00am 9.2 5.7 1.1 57 3.4 SSE 9 9 5 5 1024.3 1022.6 0.0
04/01:30am 9.7 6.5 0.6 53 3.8 SSE 7 11 4 6 1024.5 1022.8 0.0
04/01:00am 11.5 8.0 1.2 49 4.4 SE 9 11 5 6 1024.6 1022.9 0.0
04/12:30am 12.3 8.4 1.0 46 4.9 SE 11 13 6 7 1024.7 1023.0 0.0
04/12:00am 13.4 9.1 0.8 42 5.5 ESE 13 17 7 9 1024.5 1022.8 0.0
 
Date/Time
CST
Temp
°C
App
Temp
°C
Dew
Point
Rel
Hum
%
Delta-T
°C
Wind Press
QNH
hPa
Press
MSL
hPa
Rain
since 9 am
mm
Dir
 
Spd
km/h
Gust
km/h
Spd
kts
Gust
kts
03/11:30pm 13.9 9.5 0.2 39 5.9 ESE 13 17 7 9 1024.3 1022.6 0.0
03/11:00pm 13.9 9.3 -0.9 36 6.2 SE 13 17 7 9 1024.3 1022.6 0.0
03/10:30pm 13.5 8.8 -2.0 34 6.3 SE 13 15 7 8 1024.2 1022.5 0.0
03/10:00pm 13.8 8.9 -3.0 31 6.8 SE 13 15 7 8 1024.1 1022.4 0.0
03/09:30pm 14.5 9.6 -3.3 29 7.1 SE 13 17 7 9 1024.0 1022.3 0.0
03/09:00pm 15.7 10.8 -3.2 27 7.7 SE 13 15 7 8 1023.7 1021.9 0.0
03/08:30pm 15.4 10.8 -4.0 26 7.7 SSE 11 11 6 6 1023.7 1021.9 0.0
03/08:00pm 16.4 12.6 -3.7 25 8.2 SE 7 7 4 4 1023.3 1021.5 0.0
03/07:30pm 18.2 14.5 -4.5 21 9.2 E 6 9 3 5 1022.6 1020.9 0.0
03/07:00pm 19.2 15.3 -4.3 20 9.7 E 7 9 4 5 1022.4 1020.7 0.0
03/06:30pm 20.5 15.5 -4.6 18 10.4 E 13 17 7 9 1022.0 1020.3 0.0
03/06:00pm 21.3 15.9 -4.7 17 10.8 ENE 15 20 8 11 1021.9 1020.1 0.0
03/05:30pm 21.5 15.7 -4.5 17 10.9 E 17 24 9 13 1021.9 1020.1 0.0
03/05:00pm 22.0 16.4 -2.7 19 10.8 E 17 26 9 14 1021.6 1019.8 0.0
03/04:30pm 21.8 16.9 -3.5 18 10.8 E 13 24 7 13 1021.6 1019.8 0.0
03/04:00pm 21.7 15.9 -4.4 17 11.0 ENE 17 30 9 16 1021.5 1019.7 0.0
03/03:30pm 21.9 16.7 -2.7 19 10.7 E 15 24 8 13 1021.5 1019.7 0.0
03/03:00pm 21.6 16.0 -3.0 19 10.6 ENE 17 30 9 16 1021.7 1019.9 0.0
03/02:30pm 20.3 15.0 -4.0 19 10.2 E 15 28 8 15 1022.0 1020.3 0.0
03/02:00pm 20.2 14.0 -2.8 21 9.9 ENE 20 32 11 17 1022.3 1020.6 0.0
03/01:30pm 20.3 14.2 -2.7 21 9.9 E 20 32 11 17 1022.7 1021.0 0.0
03/01:00pm 19.6 15.2 -2.1 23 9.4 ESE 11 28 6 15 1023.5 1021.7 0.0
03/12:30pm 19.6 14.3 -0.9 25 9.1 ESE 17 26 9 14 1024.1 1022.4 0.0
03/12:00pm 18.1 12.3 -1.7 26 8.5 ESE 19 28 10 15 1024.5 1022.8 0.0
03/11:30am 17.4 11.8 -0.3 30 7.8 SE 19 30 10 16 1025.0 1023.3 0.0
03/11:00am 16.7 11.0 0.4 33 7.3 ESE 20 28 11 15 1025.3 1023.6 0.0
03/10:30am 15.7 10.1 1.1 37 6.5 SE 20 28 11 15 1025.9 1024.2 0.0
03/10:00am 14.8 9.3 2.0 42 5.8 SE 20 30 11 16 1026.1 1024.4 0.0
03/09:30am 14.4 8.7 2.6 45 5.4 SE 22 32 12 17 1026.2 1024.5 0.0
03/09:00am 13.2 7.8 2.7 49 4.7 SE 20 30 11 16 1025.9 1024.2 0.0
03/08:30am 11.7 6.5 2.5 53 4.1 SE 19 24 10 13 1025.6 1023.9 0.0
03/08:00am 10.3 5.8 2.2 57 3.5 SE 15 20 8 11 1025.2 1023.5 0.0
03/07:30am 6.8 3.2 0.9 66 2.4 SSE 9 11 5 6 1024.8 1023.1 0.0
03/07:00am 6.9 3.7 0.8 65 2.5 SE 7 9 4 5 1024.4 1022.7 0.0
03/06:30am 6.8 3.2 0.5 64 2.5 SSE 9 11 5 6 1024.1 1022.4 0.0
03/06:00am 8.2 4.3 0.9 60 3.0 SSE 11 15 6 8 1023.6 1021.8 0.0
03/05:30am 9.0 5.1 1.2 58 3.3 SSE 11 17 6 9 1023.0 1021.3 0.0
03/05:00am 9.5 4.8 0.9 55 3.6 SSE 15 20 8 11 1022.7 1021.0 0.0
03/04:30am 9.8 5.1 0.9 54 3.7 SSE 15 20 8 11 1022.7 1021.0 0.0
03/04:00am 9.4 5.1 1.3 57 3.4 SSE 13 17 7 9 1022.8 1021.1 0.0
03/03:30am 6.6 2.3 -1.3 57 3.0 S 11 13 6 7 1023.0 1021.3 0.0
03/03:00am 6.5 1.4 -1.9 55 3.2 S 15 17 8 9 1023.0 1021.3 0.0
03/02:30am 6.5 1.4 -2.1 54 3.2 S 15 17 8 9 1023.1 1021.4 0.0
03/02:00am 7.1 2.0 -2.1 52 3.5 SSW 15 17 8 9 1023.4 1021.6 0.0
03/01:30am 7.6 2.5 -1.9 51 3.6 SSW 15 17 8 9 1023.4 1021.6 0.0
03/01:00am 7.5 1.9 -2.8 48 3.9 SSW 17 19 9 10 1023.5 1021.7 0.0
03/12:30am 8.5 3.7 -2.4 46 4.2 SSW 13 15 7 8 1023.3 1021.5 0.0
03/12:00am 8.8 4.0 -2.8 44 4.4 SSW 13 15 7 8 1023.1 1021.4 0.0
 
Date/Time
CST
Temp
°C
App
Temp
°C
Dew
Point
Rel
Hum
%
Delta-T
°C
Wind Press
QNH
hPa
Press
MSL
hPa
Rain
since 9 am
mm
Dir
 
Spd
km/h
Gust
km/h
Spd
kts
Gust
kts
02/11:30pm 10.7 6.4 -2.0 41 5.0 S 11 13 6 7 1023.1 1021.4 0.0
02/11:00pm 10.3 5.9 -2.4 41 5.0 S 11 13 6 7 1022.8 1021.1 0.0
02/10:30pm 11.3 6.5 -2.8 37 5.5 S 13 13 7 7 1022.8 1021.1 0.0
02/10:00pm 11.5 6.6 -3.0 36 5.7 S 13 15 7 8 1022.7 1021.0 0.0
02/09:30pm 12.0 7.5 -3.4 34 6.0 S 11 13 6 7 1022.6 1020.9 0.0
02/09:00pm 13.3 8.8 -3.4 31 6.6 SSE 11 15 6 8 1022.3 1020.6 0.0
02/08:30pm 14.0 9.4 -3.7 29 7.0 SSW 11 13 6 7 1021.9 1020.1 0.0
02/08:00pm 14.9 10.3 -3.9 27 7.5 S 11 13 6 7 1021.5 1019.7 0.0
02/07:30pm 15.6 10.7 -3.8 26 7.8 S 13 13 7 7 1021.1 1019.3 0.0
02/07:00pm 17.2 12.7 -3.5 24 8.5 S 11 13 6 7 1020.6 1018.9 0.0
02/06:30pm 19.0 13.7 -3.2 22 9.3 S 15 20 8 11 1020.4 1018.7 0.0
02/06:00pm 19.8 15.1 -1.9 23 9.4 SSW 13 20 7 11 1020.1 1018.3 0.0
02/05:30pm 20.2 15.5 -1.6 23 9.6 SSW 13 20 7 11 1019.7 1017.9 0.0

Other Formats:

Comma delimited format used in spreadsheet applications
http://www.bom.gov.au/fwo/IDD60801/IDD60801.94462.axf

JavaScript Object Notation format (JSON) in row-major order
http://www.bom.gov.au/fwo/IDD60801/IDD60801.94462.json